createdAt,value
2017-05-03T00:00:12.180Z,10.79
2017-05-03T00:02:26.842Z,10.67
2017-05-03T00:03:12.246Z,10.82
2017-05-03T00:04:12.267Z,10.73
2017-05-03T00:05:12.286Z,10.76
2017-05-03T00:06:12.306Z,10.78
2017-05-03T00:07:12.328Z,10.64
2017-05-03T00:08:12.084Z,10.79
2017-05-03T00:09:26.683Z,10.76
2017-05-03T00:10:12.390Z,10.78
2017-05-03T00:11:12.413Z,10.74
2017-05-03T00:12:12.436Z,10.76
2017-05-03T00:13:12.151Z,10.68
2017-05-03T00:14:12.481Z,10.71
2017-05-03T00:15:12.189Z,10.71
2017-05-03T00:16:12.515Z,10.7
2017-05-03T00:17:12.233Z,10.7
2017-05-03T00:18:12.560Z,10.59
2017-05-03T00:19:12.585Z,10.67
2017-05-03T00:20:26.912Z,10.64
2017-05-03T00:21:12.622Z,10.64
2017-05-03T00:22:12.338Z,10.61
2017-05-03T00:23:12.363Z,10.45
2017-05-03T00:25:27.320Z,10.63
2017-05-03T00:26:12.729Z,10.66
2017-05-03T00:27:12.444Z,10.53
2017-05-03T00:28:12.773Z,10.59
2017-05-03T00:29:12.490Z,10.6
2017-05-03T00:30:12.807Z,10.63
2017-05-03T00:31:12.537Z,10.56
2017-05-03T00:33:12.576Z,10.55
2017-05-03T00:35:27.228Z,10.51
2017-05-03T00:36:12.933Z,10.48
2017-05-03T00:37:12.957Z,10.47
2017-05-03T00:38:27.288Z,10.47
2017-05-03T00:39:12.998Z,10.51
2017-05-03T00:40:13.016Z,10.52
2017-05-03T00:41:27.654Z,10.48
2017-05-03T00:42:13.058Z,10.32
2017-05-03T00:43:13.080Z,10.44
2017-05-03T00:44:13.102Z,10.48
2017-05-03T00:45:13.121Z,10.42
2017-05-03T00:46:13.141Z,10.34
2017-05-03T00:47:13.164Z,10.34
2017-05-03T00:49:13.205Z,10.48
2017-05-03T00:50:12.920Z,10.45
2017-05-03T00:51:13.251Z,10.51
2017-05-03T00:52:13.268Z,10.47
2017-05-03T00:53:13.292Z,10.56
2017-05-03T00:54:13.314Z,10.53
2017-05-03T00:55:13.027Z,10.52
2017-05-03T00:56:13.351Z,10.55
2017-05-03T00:57:27.986Z,10.47
2017-05-03T00:58:13.391Z,10.47
2017-05-03T00:59:13.419Z,10.51
2017-05-03T01:00:13.134Z,10.51
2017-05-03T01:01:13.453Z,10.55
2017-05-03T01:02:13.176Z,10.56
2017-05-03T01:03:13.505Z,10.56
2017-05-03T01:04:13.216Z,10.59
2017-05-03T01:05:13.536Z,10.51
2017-05-03T01:06:13.561Z,10.47
2017-05-03T01:07:13.577Z,10.52
2017-05-03T01:08:27.914Z,10.51
2017-05-03T01:09:13.321Z,10.56
2017-05-03T01:10:13.643Z,10.52
2017-05-03T01:11:13.665Z,10.56
2017-05-03T01:12:28.300Z,10.47
2017-05-03T01:13:13.708Z,10.47
2017-05-03T01:14:13.730Z,10.48
2017-05-03T01:15:13.744Z,10.47
2017-05-03T01:16:13.775Z,10.52
2017-05-03T01:17:13.489Z,10.51
2017-05-03T01:18:13.506Z,10.53
2017-05-03T01:19:13.530Z,10.53
2017-05-03T01:20:13.850Z,10.47
2017-05-03T01:21:13.577Z,10.47
2017-05-03T01:22:13.895Z,10.53
2017-05-03T01:23:28.531Z,10.48
2017-05-03T01:24:13.937Z,10.47
2017-05-03T01:25:13.957Z,10.42
2017-05-03T01:26:13.673Z,10.45
2017-05-03T01:27:13.996Z,10.48
2017-05-03T01:28:13.715Z,10.48
2017-05-03T01:29:13.737Z,10.51
2017-05-03T01:30:13.754Z,10.51
2017-05-03T01:31:13.777Z,10.44
2017-05-03T01:32:14.118Z,10.52
2017-05-03T01:33:13.818Z,10.53
2017-05-03T01:34:13.842Z,10.51
2017-05-03T01:35:14.163Z,10.7
2017-05-03T01:36:13.880Z,10.71
2017-05-03T01:37:14.211Z,10.61
2017-05-03T01:38:14.234Z,10.61
2017-05-03T01:39:14.249Z,10.64
2017-05-03T01:40:14.265Z,10.67
2017-05-03T01:41:14.289Z,10.63
2017-05-03T01:42:14.319Z,10.67
2017-05-03T01:43:14.336Z,10.68
2017-05-03T01:44:28.967Z,10.68
2017-05-03T01:45:14.068Z,10.66
2017-05-03T01:46:14.092Z,10.66
2017-05-03T01:47:14.109Z,10.74
2017-05-03T01:49:14.151Z,10.63
2017-05-03T01:50:14.476Z,10.68
2017-05-03T01:51:14.193Z,10.74
2017-05-03T01:52:29.138Z,10.73
2017-05-03T01:53:14.548Z,10.66
2017-05-03T01:54:14.254Z,10.73
2017-05-03T01:55:29.198Z,10.71
2017-05-03T01:56:29.217Z,10.68
2017-05-03T01:57:14.320Z,10.68
2017-05-03T01:58:14.340Z,10.76
2017-05-03T01:59:14.665Z,10.61
2017-05-03T02:00:29.302Z,10.48
2017-05-03T02:01:14.712Z,10.61
2017-05-03T02:02:14.726Z,10.6
2017-05-03T02:03:14.747Z,10.66
2017-05-03T02:04:14.770Z,10.63
2017-05-03T02:05:14.791Z,10.59
2017-05-03T02:06:14.811Z,10.53
2017-05-03T02:07:14.529Z,10.51
2017-05-03T02:08:14.861Z,10.51
2017-05-03T02:09:14.873Z,10.51
2017-05-03T02:11:14.612Z,10.36
2017-05-03T02:12:14.936Z,10.47
2017-05-03T02:13:14.655Z,10.47
2017-05-03T02:14:14.980Z,10.48
2017-05-03T02:15:14.997Z,10.45
2017-05-03T02:16:29.636Z,10.41
2017-05-03T02:17:15.039Z,10.45
2017-05-03T02:18:14.766Z,10.42
2017-05-03T02:19:15.083Z,10.48
2017-05-03T02:20:14.799Z,10.44
2017-05-03T02:21:15.122Z,10.42
2017-05-03T02:22:15.145Z,10.36
2017-05-03T02:23:15.168Z,10.53
2017-05-03T02:24:15.184Z,10.42
2017-05-03T02:25:15.207Z,10.44
2017-05-03T02:26:15.226Z,10.47
2017-05-03T02:27:14.988Z,10.45
2017-05-03T02:28:15.271Z,10.45
2017-05-03T02:29:15.297Z,10.41
2017-05-03T02:30:15.313Z,10.47
2017-05-03T02:31:15.027Z,10.45
2017-05-03T02:32:29.969Z,10.52
2017-05-03T02:33:15.376Z,10.52
2017-05-03T02:34:15.394Z,10.45
2017-05-03T02:35:15.420Z,10.51
2017-05-03T02:36:15.134Z,10.52
2017-05-03T02:37:15.153Z,10.53
2017-05-03T02:38:15.476Z,10.51
2017-05-03T02:39:15.193Z,10.41
2017-05-03T02:40:15.520Z,10.48
2017-05-03T02:41:15.542Z,10.51
2017-05-03T02:42:15.564Z,10.44
2017-05-03T02:43:15.583Z,10.44
2017-05-03T02:44:15.303Z,10.34
2017-05-03T02:45:15.328Z,10.4
2017-05-03T02:46:15.343Z,10.36
2017-05-03T02:47:29.979Z,10.29
2017-05-03T02:48:15.688Z,10.38
2017-05-03T02:49:15.105Z,10.41
2017-05-03T02:50:15.727Z,10.34
2017-05-03T02:51:15.751Z,10.36
2017-05-03T02:52:15.465Z,10.4
2017-05-03T02:53:15.791Z,10.4
2017-05-03T02:54:15.827Z,10.38
2017-05-03T02:55:15.530Z,10.41
2017-05-03T02:57:15.874Z,10.41
2017-05-03T02:58:15.896Z,10.3
2017-05-03T02:59:30.532Z,10.26
2017-05-03T03:00:15.937Z,10.27
2017-05-03T03:01:15.654Z,10.29
2017-05-03T03:02:15.676Z,10.25
2017-05-03T03:03:16.003Z,10.3
2017-05-03T03:04:16.024Z,10.26
2017-05-03T03:05:16.038Z,10.22
2017-05-03T03:06:16.059Z,10.23
2017-05-03T03:07:15.779Z,10.25
2017-05-03T03:08:16.100Z,10.29
2017-05-03T03:09:15.820Z,10.32
2017-05-03T03:10:15.841Z,10.25
2017-05-03T03:11:15.871Z,10.22
2017-05-03T03:12:16.185Z,10.29
2017-05-03T03:13:16.206Z,10.27
2017-05-03T03:14:30.844Z,10.17
2017-05-03T03:15:15.945Z,10.22
2017-05-03T03:16:30.882Z,10.2
2017-05-03T03:17:16.288Z,10.23
2017-05-03T03:18:16.312Z,10.25
2017-05-03T03:19:30.948Z,10.22
2017-05-03T03:20:16.052Z,10.23
2017-05-03T03:21:16.068Z,10.2
2017-05-03T03:22:16.089Z,10.25
2017-05-03T03:23:16.109Z,10.17
2017-05-03T03:24:16.136Z,10.27
2017-05-03T03:25:16.149Z,10.26
2017-05-03T03:26:16.484Z,10.15
2017-05-03T03:27:16.198Z,10.17
2017-05-03T03:28:16.519Z,10.25
2017-05-03T03:29:16.234Z,10.11
2017-05-03T03:30:30.871Z,10.12
2017-05-03T03:31:30.889Z,10.17
2017-05-03T03:32:16.599Z,10.2
2017-05-03T03:33:16.620Z,10.18
2017-05-03T03:34:16.339Z,10.09
2017-05-03T03:35:31.278Z,10.09
2017-05-03T03:36:16.680Z,10.14
2017-05-03T03:37:16.713Z,10.05
2017-05-03T03:38:16.738Z,10.09
2017-05-03T03:39:16.747Z,10.08
2017-05-03T03:40:16.459Z,10.17
2017-05-03T03:41:16.479Z,10.22
2017-05-03T03:43:16.829Z,10.17
2017-05-03T03:44:16.854Z,10.15
2017-05-03T03:45:16.869Z,10.14
2017-05-03T03:46:16.592Z,10.17
2017-05-03T03:47:16.705Z,10.22
2017-05-03T03:48:16.322Z,10.15
2017-05-03T03:49:16.950Z,10.08
2017-05-03T03:50:16.666Z,10.02
2017-05-03T03:51:31.606Z,10.02
2017-05-03T03:52:17.023Z,10.08
2017-05-03T03:53:17.034Z,10.07
2017-05-03T03:54:17.063Z,10.12
2017-05-03T03:55:16.769Z,10.09
2017-05-03T03:56:17.095Z,10.07
2017-05-03T03:57:16.814Z,9.94
2017-05-03T03:59:16.852Z,9.94
2017-05-03T04:01:16.894Z,9.97
2017-05-03T04:02:31.836Z,9.9
2017-05-03T04:03:31.855Z,9.9
2017-05-03T04:04:17.262Z,9.97
2017-05-03T04:05:17.287Z,10.01
2017-05-03T04:06:17.300Z,9.94
2017-05-03T04:07:31.937Z,10.01
2017-05-03T04:08:17.037Z,10.05
2017-05-03T04:09:17.364Z,10.02
2017-05-03T04:10:17.438Z,9.97
2017-05-03T04:11:17.404Z,10.01
2017-05-03T04:12:17.126Z,9.96
2017-05-03T04:13:17.454Z,9.97
2017-05-03T04:14:17.477Z,9.97
2017-05-03T04:16:17.203Z,9.91
2017-05-03T04:18:17.565Z,9.97
2017-05-03T04:19:17.582Z,9.94
2017-05-03T04:20:17.286Z,9.96
2017-05-03T04:21:17.359Z,9.9
2017-05-03T04:22:32.298Z,9.84
2017-05-03T04:23:17.350Z,9.96
2017-05-03T04:24:17.374Z,9.93
2017-05-03T04:25:17.694Z,9.94
2017-05-03T04:26:17.411Z,9.86
2017-05-03T04:27:17.742Z,9.9
2017-05-03T04:28:17.755Z,9.93
2017-05-03T04:29:17.776Z,9.93
2017-05-03T04:30:17.504Z,9.94
2017-05-03T04:31:17.527Z,9.91
2017-05-03T04:32:17.839Z,9.93
2017-05-03T04:33:17.864Z,9.94
2017-05-03T04:34:17.598Z,9.97
2017-05-03T04:35:17.898Z,9.99
2017-05-03T04:36:17.921Z,9.94
2017-05-03T04:37:17.939Z,9.93
2017-05-03T04:38:17.713Z,9.96
2017-05-03T04:39:17.674Z,9.93
2017-05-03T04:40:18.003Z,9.97
2017-05-03T04:41:17.416Z,9.99
2017-05-03T04:42:18.044Z,10.02
2017-05-03T04:43:17.456Z,10.01
2017-05-03T04:44:32.706Z,9.99
2017-05-03T04:45:18.103Z,10.08
2017-05-03T04:46:18.122Z,10.05
2017-05-03T04:47:18.143Z,10.05
2017-05-03T04:48:32.784Z,9.97
2017-05-03T04:49:17.882Z,10.11
2017-05-03T04:50:18.207Z,10.17
2017-05-03T04:51:18.276Z,10.01
2017-05-03T04:52:18.247Z,10.11
2017-05-03T04:53:18.267Z,10.12
2017-05-03T04:54:32.905Z,10.07
2017-05-03T04:55:18.308Z,10.02
2017-05-03T04:56:18.330Z,10.07
2017-05-03T04:57:18.046Z,10.02
2017-05-03T04:58:18.376Z,9.9
2017-05-03T04:59:18.391Z,9.99
2017-05-03T05:01:18.432Z,10.08
2017-05-03T05:03:18.511Z,10.04
2017-05-03T05:04:18.548Z,10.08
2017-05-03T05:05:18.518Z,10.07
2017-05-03T05:06:18.235Z,10.07
2017-05-03T05:07:18.556Z,10.12
2017-05-03T05:09:18.595Z,9.97
2017-05-03T05:10:33.234Z,9.96
2017-05-03T05:11:18.032Z,9.99
2017-05-03T05:12:18.661Z,9.97
2017-05-03T05:13:18.378Z,9.96
2017-05-03T05:14:18.699Z,9.96
2017-05-03T05:15:18.720Z,10.08
2017-05-03T05:16:18.742Z,9.94
2017-05-03T05:17:18.760Z,9.96
2017-05-03T05:18:18.781Z,9.91
2017-05-03T05:19:18.803Z,9.93
2017-05-03T05:20:18.531Z,9.99
2017-05-03T05:21:33.157Z,9.84
2017-05-03T05:22:18.561Z,9.78
2017-05-03T05:23:18.280Z,9.94
2017-05-03T05:24:18.605Z,9.99
2017-05-03T05:25:18.929Z,9.93
2017-05-03T05:26:33.561Z,9.97
2017-05-03T05:27:18.671Z,10.05
2017-05-03T05:28:18.685Z,10.02
2017-05-03T05:29:18.711Z,10.04
2017-05-03T05:30:19.088Z,10.02
2017-05-03T05:31:18.748Z,10.08
2017-05-03T05:33:18.790Z,10.02
2017-05-03T05:34:19.361Z,10.11
2017-05-03T05:36:33.771Z,10.18
2017-05-03T05:37:19.180Z,10.22
2017-05-03T05:38:19.193Z,10.2
2017-05-03T05:39:19.216Z,10.18
2017-05-03T05:40:19.237Z,10.29
2017-05-03T05:41:19.253Z,10.26
2017-05-03T05:42:33.892Z,10.38
2017-05-03T05:43:18.994Z,10.38
2017-05-03T05:44:19.330Z,10.4
2017-05-03T05:45:18.730Z,10.53
2017-05-03T05:46:19.364Z,10.61
2017-05-03T05:47:19.377Z,10.66
2017-05-03T05:48:19.411Z,10.67
2017-05-03T05:49:19.422Z,10.63
2017-05-03T05:50:19.442Z,10.64
2017-05-03T05:51:19.464Z,10.63
2017-05-03T05:52:19.179Z,10.63
2017-05-03T05:53:19.504Z,10.56
2017-05-03T05:54:19.528Z,10.63
2017-05-03T05:55:34.162Z,10.64
2017-05-03T05:56:19.266Z,10.61
2017-05-03T05:57:34.206Z,10.63
2017-05-03T05:58:19.308Z,10.61
2017-05-03T06:00:19.651Z,10.76
2017-05-03T06:01:19.369Z,10.7
2017-05-03T06:02:19.392Z,10.63
2017-05-03T06:04:19.735Z,10.64
2017-05-03T06:05:19.793Z,10.63
2017-05-03T06:06:19.775Z,10.6
2017-05-03T06:07:19.812Z,10.67
2017-05-03T06:08:19.823Z,10.79
2017-05-03T06:09:19.546Z,10.74
2017-05-03T06:10:19.870Z,10.7
2017-05-03T06:11:19.890Z,10.74
2017-05-03T06:12:19.601Z,10.56
2017-05-03T06:13:19.621Z,10.67
2017-05-03T06:14:19.645Z,10.61
2017-05-03T06:15:19.660Z,10.67
2017-05-03T06:17:20.006Z,10.85
2017-05-03T06:18:19.729Z,10.99
2017-05-03T06:19:20.054Z,10.91
2017-05-03T06:20:34.692Z,10.76
2017-05-03T06:21:20.091Z,10.68
2017-05-03T06:22:19.811Z,10.71
2017-05-03T06:23:34.752Z,10.68
2017-05-03T06:24:20.206Z,10.68
2017-05-03T06:25:19.872Z,10.78
2017-05-03T06:26:19.896Z,10.91
2017-05-03T06:27:20.217Z,10.92
2017-05-03T06:28:20.240Z,10.97
2017-05-03T06:29:34.879Z,11.1
2017-05-03T06:30:19.976Z,11.14
2017-05-03T06:31:20.302Z,11.22
2017-05-03T06:32:20.019Z,11.27
2017-05-03T06:33:20.351Z,11.29
2017-05-03T06:34:20.364Z,11.18
2017-05-03T06:35:20.394Z,11.27
2017-05-03T06:36:20.408Z,11.21
2017-05-03T06:37:20.427Z,11.24
2017-05-03T06:39:35.089Z,11.24
2017-05-03T06:40:35.108Z,11.33
2017-05-03T06:41:20.228Z,11.32
2017-05-03T06:42:20.536Z,11.35
2017-05-03T06:43:20.558Z,11.22
2017-05-03T06:44:20.278Z,11.32
2017-05-03T06:45:35.213Z,11.27
2017-05-03T06:46:20.620Z,11.18
2017-05-03T06:47:20.642Z,11.24
2017-05-03T06:48:20.662Z,11.37
2017-05-03T06:49:20.686Z,11.4
2017-05-03T06:50:20.702Z,11.37
2017-05-03T06:51:20.727Z,11.43
2017-05-03T06:52:20.747Z,11.46
2017-05-03T06:53:20.771Z,11.6
2017-05-03T06:55:20.814Z,11.57
2017-05-03T06:56:20.832Z,11.57
2017-05-03T06:57:20.857Z,11.52
2017-05-03T06:58:35.490Z,11.51
2017-05-03T06:59:20.895Z,11.58
2017-05-03T07:00:20.919Z,11.61
2017-05-03T07:01:35.558Z,11.79
2017-05-03T07:02:20.660Z,11.83
2017-05-03T07:03:20.985Z,11.79
2017-05-03T07:04:21.014Z,11.72
2017-05-03T07:05:21.026Z,11.76
2017-05-03T07:06:21.045Z,11.78
2017-05-03T07:07:21.067Z,11.95
2017-05-03T07:08:21.092Z,11.98
2017-05-03T07:09:35.732Z,11.91
2017-05-03T07:10:21.131Z,11.94
2017-05-03T07:11:21.155Z,11.85
2017-05-03T07:12:21.182Z,11.86
2017-05-03T07:13:21.209Z,11.79
2017-05-03T07:14:21.222Z,11.95
2017-05-03T07:15:20.938Z,11.96
2017-05-03T07:16:21.262Z,11.98
2017-05-03T07:17:35.900Z,11.99
2017-05-03T07:18:21.313Z,12.12
2017-05-03T07:19:21.329Z,12.2
2017-05-03T07:20:21.353Z,12.24
2017-05-03T07:21:21.377Z,12.17
2017-05-03T07:22:21.392Z,12.16
2017-05-03T07:23:21.414Z,12.28
2017-05-03T07:24:21.435Z,12.39
2017-05-03T07:25:21.461Z,12.45
2017-05-03T07:27:21.200Z,12.72
2017-05-03T07:28:21.526Z,12.77
2017-05-03T07:29:21.245Z,12.9
2017-05-03T07:30:21.265Z,12.86
2017-05-03T07:31:21.286Z,12.83
2017-05-03T07:32:36.229Z,12.9
2017-05-03T07:33:21.641Z,12.87
2017-05-03T07:34:21.658Z,12.9
2017-05-03T07:35:21.678Z,12.95
2017-05-03T07:36:21.700Z,13
2017-05-03T07:37:21.423Z,13.08
2017-05-03T07:38:21.746Z,12.95
2017-05-03T07:39:21.775Z,12.87
2017-05-03T07:40:21.791Z,13
2017-05-03T07:41:21.812Z,13.04
2017-05-03T07:43:21.892Z,12.87
2017-05-03T07:44:21.885Z,12.75
2017-05-03T07:45:21.901Z,12.77
2017-05-03T07:46:21.922Z,12.87
2017-05-03T07:47:21.640Z,13
2017-05-03T07:48:21.968Z,13.01
2017-05-03T07:49:21.992Z,13.04
2017-05-03T07:50:22.010Z,13
2017-05-03T07:51:22.032Z,13.01
2017-05-03T07:52:22.055Z,13.17
2017-05-03T07:53:22.081Z,13.19
2017-05-03T07:55:22.127Z,13.23
2017-05-03T07:56:22.146Z,13.17
2017-05-03T07:57:22.217Z,13.19
2017-05-03T07:59:22.213Z,13.33
2017-05-03T08:00:36.852Z,13.22
2017-05-03T08:01:22.260Z,13.33
2017-05-03T08:02:22.280Z,13.46
2017-05-03T08:03:22.352Z,13.41
2017-05-03T08:04:36.943Z,13.49
2017-05-03T08:05:22.347Z,13.52
2017-05-03T08:06:22.371Z,13.62
2017-05-03T08:07:22.391Z,13.63
2017-05-03T08:08:22.424Z,13.67
2017-05-03T08:09:22.441Z,13.75
2017-05-03T08:10:22.509Z,13.88
2017-05-03T08:11:22.527Z,14
2017-05-03T08:12:22.505Z,14.1
2017-05-03T08:13:22.528Z,14.07
2017-05-03T08:14:22.554Z,14.06
2017-05-03T08:15:22.574Z,14.09
2017-05-03T08:16:22.603Z,14.12
2017-05-03T08:17:37.286Z,14.17
2017-05-03T08:18:22.642Z,13.96
2017-05-03T08:19:22.672Z,14.09
2017-05-03T08:20:37.303Z,14.12
2017-05-03T08:21:22.406Z,14.07
2017-05-03T08:22:22.734Z,13.92
2017-05-03T08:23:22.763Z,13.96
2017-05-03T08:24:22.779Z,13.87
2017-05-03T08:25:22.802Z,13.96
2017-05-03T08:26:22.823Z,13.84
2017-05-03T08:28:22.878Z,13.95
2017-05-03T08:29:22.899Z,14.17
2017-05-03T08:30:22.954Z,14.32
2017-05-03T08:31:37.557Z,14.39
2017-05-03T08:32:37.578Z,14.45
2017-05-03T08:33:22.986Z,14.47
2017-05-03T08:34:23.007Z,14.5
2017-05-03T08:35:23.030Z,14.51
2017-05-03T08:36:37.367Z,14.68
2017-05-03T08:37:23.076Z,14.5
2017-05-03T08:38:23.099Z,14.73
2017-05-03T08:39:22.819Z,14.95
2017-05-03T08:40:22.842Z,15.19
2017-05-03T08:41:22.567Z,15.68
2017-05-03T08:42:23.193Z,15.97
2017-05-03T08:43:22.923Z,16.39
2017-05-03T08:44:23.239Z,16.66
2017-05-03T08:46:22.982Z,16.68
2017-05-03T08:47:37.976Z,16.79
2017-05-03T08:48:37.647Z,16.67
2017-05-03T08:49:23.057Z,16.45
2017-05-03T08:50:23.096Z,16.17
2017-05-03T08:51:23.102Z,16.07
2017-05-03T08:52:38.047Z,16.3
2017-05-03T08:53:23.152Z,16.17
2017-05-03T08:54:23.478Z,16.27
2017-05-03T08:55:23.538Z,16.09
2017-05-03T08:57:23.588Z,15.92
2017-05-03T08:58:23.578Z,16.02
2017-05-03T08:59:23.597Z,16.09
2017-05-03T09:00:23.321Z,16.33
2017-05-03T09:01:23.650Z,16.43
2017-05-03T09:03:23.697Z,17
2017-05-03T09:04:23.720Z,17.07
2017-05-03T09:05:23.750Z,17
2017-05-03T09:06:23.775Z,16.97
2017-05-03T09:07:38.109Z,17.18
2017-05-03T09:08:23.819Z,17.22
2017-05-03T09:09:23.843Z,17.59
2017-05-03T09:10:23.871Z,17.89
2017-05-03T09:11:23.900Z,17.82
2017-05-03T09:12:23.920Z,17.9
2017-05-03T09:13:23.639Z,18.12
2017-05-03T09:14:23.968Z,18.12
2017-05-03T09:15:23.992Z,18.27
2017-05-03T09:16:24.015Z,18.45
2017-05-03T09:17:24.042Z,19.46
2017-05-03T09:18:24.066Z,20.23
2017-05-03T09:19:24.091Z,20.76
2017-05-03T09:20:24.117Z,20.43
2017-05-03T09:21:24.145Z,20.02
2017-05-03T09:22:23.917Z,19.56
2017-05-03T09:23:24.197Z,19.37
2017-05-03T09:24:24.259Z,19.19
2017-05-03T09:25:24.245Z,19.06
2017-05-03T09:26:24.320Z,18.88
2017-05-03T09:27:24.296Z,18.75
2017-05-03T09:28:24.321Z,18.65
2017-05-03T09:29:24.348Z,18.5
2017-05-03T09:30:24.423Z,18.39
2017-05-03T09:31:24.398Z,18.32
2017-05-03T09:32:24.437Z,18.3
2017-05-03T09:33:24.506Z,18.48
2017-05-03T09:34:24.536Z,17.77
2017-05-03T09:35:39.118Z,17.58
2017-05-03T09:36:24.229Z,17.68
2017-05-03T09:37:24.251Z,17.81
2017-05-03T09:38:24.588Z,17.92
2017-05-03T09:39:39.220Z,17.86
2017-05-03T09:40:24.631Z,17.96
2017-05-03T09:41:24.660Z,18.03
2017-05-03T09:42:24.683Z,18.02
2017-05-03T09:43:24.707Z,18.27
2017-05-03T09:44:24.735Z,18.69
2017-05-03T09:47:24.821Z,19.92
2017-05-03T09:48:24.529Z,19.77
2017-05-03T09:49:24.922Z,19.69
2017-05-03T09:50:24.886Z,19.5
2017-05-03T09:51:39.528Z,19.11
2017-05-03T09:52:24.989Z,19.18
2017-05-03T09:53:24.961Z,18.88
2017-05-03T09:54:24.987Z,18.76
2017-05-03T09:55:39.630Z,19.16
2017-05-03T09:56:25.041Z,19.47
2017-05-03T09:57:25.066Z,19.87
2017-05-03T09:58:25.097Z,19.96
2017-05-03T09:59:25.115Z,20.41
2017-05-03T10:00:25.195Z,20.5
2017-05-03T10:01:25.169Z,20.21
2017-05-03T10:02:25.194Z,19.99
2017-05-03T10:03:25.219Z,19.73
2017-05-03T10:04:25.250Z,19.47
2017-05-03T10:06:25.299Z,19.21
2017-05-03T10:07:25.377Z,19.39
2017-05-03T10:08:25.356Z,19.69
2017-05-03T10:09:25.074Z,19.99
2017-05-03T10:10:25.403Z,20.18
2017-05-03T10:11:39.780Z,20.72
2017-05-03T10:12:25.460Z,20.89
2017-05-03T10:13:25.181Z,21.17
2017-05-03T10:14:25.510Z,21.21
2017-05-03T10:15:25.230Z,21.14
2017-05-03T10:16:25.259Z,21.04
2017-05-03T10:17:25.587Z,21.01
2017-05-03T10:18:25.616Z,20.51
2017-05-03T10:19:25.645Z,20.21
2017-05-03T10:21:25.697Z,20.11
2017-05-03T10:22:25.469Z,19.92
2017-05-03T10:23:40.370Z,19.55
2017-05-03T10:24:25.477Z,19.16
2017-05-03T10:25:25.804Z,18.94
2017-05-03T10:26:25.893Z,18.75
2017-05-03T10:27:40.475Z,18.69
2017-05-03T10:28:25.893Z,18.55
2017-05-03T10:29:25.927Z,18.45
2017-05-03T10:30:25.931Z,18.62
2017-05-03T10:31:25.965Z,18.62
2017-05-03T10:32:25.987Z,18.44
2017-05-03T10:33:26.012Z,17.95
2017-05-03T10:34:26.046Z,17.54
2017-05-03T10:35:26.066Z,17.41
2017-05-03T10:36:26.094Z,17.58
2017-05-03T10:37:25.833Z,17.25
2017-05-03T10:38:26.168Z,17.38
2017-05-03T10:39:26.181Z,17.82
2017-05-03T10:40:25.914Z,17.81
2017-05-03T10:41:26.236Z,17.46
2017-05-03T10:42:40.875Z,17.51
2017-05-03T10:43:26.438Z,17.58
2017-05-03T10:44:26.311Z,17.82
2017-05-03T10:45:26.333Z,17.95
2017-05-03T10:46:26.166Z,18.14
2017-05-03T10:47:26.096Z,17.97
2017-05-03T10:48:26.119Z,17.74
2017-05-03T10:49:26.555Z,17.96
2017-05-03T10:50:41.081Z,18.3
2017-05-03T10:51:26.503Z,18.7
2017-05-03T10:52:26.530Z,18.66
2017-05-03T10:53:26.553Z,18.69
2017-05-03T10:54:26.582Z,18.72
2017-05-03T10:55:26.606Z,18.69
2017-05-03T10:56:26.628Z,18.18
2017-05-03T10:57:26.663Z,18.25
2017-05-03T10:58:26.678Z,17.95
2017-05-03T10:59:41.324Z,17.54
2017-05-03T11:00:26.945Z,17.71
2017-05-03T11:01:26.746Z,17.74
2017-05-03T11:02:26.783Z,17.62
2017-05-03T11:03:26.842Z,17.31
2017-05-03T11:04:26.820Z,17.52
2017-05-03T11:05:26.859Z,17.48
2017-05-03T11:06:26.785Z,17.55
2017-05-03T11:08:26.933Z,17.4
2017-05-03T11:09:27.067Z,17.72
2017-05-03T11:10:27.037Z,18.1
2017-05-03T11:11:27.012Z,18.55
2017-05-03T11:12:27.192Z,18.67
2017-05-03T11:13:27.102Z,18.91
2017-05-03T11:14:41.396Z,18.9
2017-05-03T11:15:27.451Z,19.13
2017-05-03T11:16:27.126Z,19.21
2017-05-03T11:17:27.149Z,18.67
2017-05-03T11:18:27.280Z,18.39
2017-05-03T11:19:27.250Z,18.48
2017-05-03T11:21:27.252Z,18.48
2017-05-03T11:22:27.335Z,18.23
2017-05-03T11:23:27.324Z,18.25
2017-05-03T11:26:42.048Z,18.69
2017-05-03T11:27:42.174Z,18.84
2017-05-03T11:28:27.429Z,18.88
2017-05-03T11:29:27.208Z,18.95
2017-05-03T11:30:42.099Z,19.39
2017-05-03T11:31:27.305Z,19.4
2017-05-03T11:32:27.228Z,18.92
2017-05-03T11:33:27.767Z,18.94
2017-05-03T11:34:27.640Z,18.65
2017-05-03T11:35:27.305Z,18.51
2017-05-03T11:36:27.484Z,17.93
2017-05-03T11:37:27.661Z,17.87
2017-05-03T11:38:27.688Z,18.08
2017-05-03T11:39:27.715Z,18.25
2017-05-03T11:40:27.737Z,18.45
2017-05-03T11:41:27.767Z,18.51
2017-05-03T11:42:27.846Z,18.6
2017-05-03T11:44:27.844Z,18.88
2017-05-03T11:45:28.037Z,19.43
2017-05-03T11:46:42.560Z,19.73
2017-05-03T11:47:27.617Z,19.08
2017-05-03T11:48:27.943Z,18.12
2017-05-03T11:49:28.073Z,17.56
2017-05-03T11:50:28.015Z,17.22
2017-05-03T11:51:28.027Z,17.11
2017-05-03T11:52:28.098Z,17.3
2017-05-03T11:53:28.072Z,17.56
2017-05-03T11:54:28.098Z,18.11
2017-05-03T11:55:28.123Z,18.36
2017-05-03T11:57:28.173Z,18.73
2017-05-03T11:58:28.056Z,18.87
2017-05-03T11:59:27.925Z,18.41
2017-05-03T12:00:27.645Z,18.58
2017-05-03T12:01:28.122Z,18.58
2017-05-03T12:02:42.921Z,18.75
2017-05-03T12:03:27.722Z,18.9
2017-05-03T12:04:28.456Z,19.16
2017-05-03T12:05:28.433Z,18.84
2017-05-03T12:06:28.506Z,18.75
2017-05-03T12:07:28.435Z,18.7
2017-05-03T12:08:28.556Z,18.35
2017-05-03T12:09:28.481Z,18.05
2017-05-03T12:10:28.506Z,17.96
2017-05-03T12:11:28.537Z,18
2017-05-03T12:12:28.559Z,17.89
2017-05-03T12:13:28.586Z,17.66
2017-05-03T12:14:28.610Z,17.49
2017-05-03T12:15:43.254Z,17.58
2017-05-03T12:16:28.664Z,17.4
2017-05-03T12:17:43.457Z,17.58
2017-05-03T12:18:28.459Z,17.71
2017-05-03T12:19:28.738Z,17.28
2017-05-03T12:20:28.862Z,17.3
2017-05-03T12:21:28.488Z,17.36
2017-05-03T12:22:28.818Z,17.37
2017-05-03T12:24:28.866Z,17.34
2017-05-03T12:25:28.890Z,17.31
2017-05-03T12:26:29.120Z,17.06
2017-05-03T12:28:29.017Z,17.28
2017-05-03T12:29:29.049Z,17.59
2017-05-03T12:30:29.017Z,17.81
2017-05-03T12:31:29.047Z,18.14
2017-05-03T12:32:29.168Z,18.26
2017-05-03T12:33:29.145Z,18.39
2017-05-03T12:34:29.116Z,18.26
2017-05-03T12:35:29.295Z,18.41
2017-05-03T12:36:29.168Z,18.29
2017-05-03T12:37:28.890Z,18.44
2017-05-03T12:38:29.369Z,18.54
2017-05-03T12:39:29.594Z,18.55
2017-05-03T12:40:29.383Z,18.48
2017-05-03T12:43:29.345Z,18
2017-05-03T12:44:29.373Z,17.74
2017-05-03T12:45:29.448Z,18.14
2017-05-03T12:46:29.422Z,18.33
2017-05-03T12:47:29.601Z,18.3
2017-05-03T12:48:29.474Z,18.47
2017-05-03T12:49:43.813Z,18.73
2017-05-03T12:50:29.524Z,18.44
2017-05-03T12:51:29.602Z,18.2
2017-05-03T12:52:29.577Z,18.23
2017-05-03T12:53:28.999Z,18.15
2017-05-03T12:54:29.674Z,18.27
2017-05-03T12:55:29.651Z,18.3
2017-05-03T12:56:29.725Z,18.08
2017-05-03T12:57:29.699Z,17.87
2017-05-03T12:58:29.780Z,17.38
2017-05-03T12:59:30.112Z,17.28
2017-05-03T13:00:29.796Z,17.23
2017-05-03T13:01:29.814Z,17.22
2017-05-03T13:02:29.848Z,17.38
2017-05-03T13:03:29.878Z,17.52
2017-05-03T13:04:29.881Z,17.36
2017-05-03T13:05:44.525Z,17.49
2017-05-03T13:06:29.946Z,17.56
2017-05-03T13:07:30.017Z,17.72
2017-05-03T13:08:30.143Z,17.72
2017-05-03T13:10:29.794Z,17.78
2017-05-03T13:11:30.109Z,18.14
2017-05-03T13:12:30.080Z,18.12
2017-05-03T13:13:30.115Z,17.77
2017-05-03T13:14:30.238Z,17.52
2017-05-03T13:15:29.854Z,17.46
2017-05-03T13:16:44.497Z,17.26
2017-05-03T13:17:30.257Z,17.11
2017-05-03T13:18:44.851Z,17.04
2017-05-03T13:19:30.257Z,17.22
2017-05-03T13:20:30.130Z,17.41
2017-05-03T13:21:44.927Z,17.71
2017-05-03T13:23:30.359Z,18.08
2017-05-03T13:24:30.387Z,18.3
2017-05-03T13:25:30.405Z,18.41
2017-05-03T13:26:45.154Z,18.32
2017-05-03T13:27:30.459Z,18.36
2017-05-03T13:28:30.485Z,18.47
2017-05-03T13:29:30.556Z,18.42
2017-05-03T13:31:30.256Z,18.44
2017-05-03T13:32:30.481Z,18.15
2017-05-03T13:33:30.609Z,18.02
2017-05-03T13:34:30.642Z,17.56
2017-05-03T13:35:31.010Z,17.49
2017-05-03T13:36:30.693Z,17.37
2017-05-03T13:37:45.332Z,17.33
2017-05-03T13:38:30.888Z,17.19
2017-05-03T13:39:30.761Z,17.26
2017-05-03T13:40:30.837Z,17.25
2017-05-03T13:41:30.875Z,17.23
2017-05-03T13:42:30.857Z,17.23
2017-05-03T13:43:30.868Z,17.3
2017-05-03T13:44:30.994Z,17.28
2017-05-03T13:45:30.917Z,17.21